sensor_id;sensor_type;location;lat;lon;timestamp;temperature;humidity
11617;DHT22;5864;52.998;9.068;2022-09-20T00:01:05;10.80;99.90
11617;DHT22;5864;52.998;9.068;2022-09-20T00:03:35;10.80;99.90
11617;DHT22;5864;52.998;9.068;2022-09-20T00:06:04;10.80;99.90
11617;DHT22;5864;52.998;9.068;2022-09-20T00:08:33;10.80;99.90
11617;DHT22;5864;52.998;9.068;2022-09-20T00:11:01;10.80;99.90
11617;DHT22;5864;52.998;9.068;2022-09-20T00:13:29;10.80;99.90
11617;DHT22;5864;52.998;9.068;2022-09-20T00:15:57;10.70;99.90
11617;DHT22;5864;52.998;9.068;2022-09-20T00:18:26;10.70;99.90
11617;DHT22;5864;52.998;9.068;2022-09-20T00:20:55;10.70;99.90
11617;DHT22;5864;52.998;9.068;2022-09-20T00:23:22;10.70;99.90
11617;DHT22;5864;52.998;9.068;2022-09-20T00:25:55;10.70;99.90
11617;DHT22;5864;52.998;9.068;2022-09-20T00:28:23;10.70;99.90
11617;DHT22;5864;52.998;9.068;2022-09-20T00:30:51;10.70;99.90
11617;DHT22;5864;52.998;9.068;2022-09-20T00:33:18;10.60;99.90
11617;DHT22;5864;52.998;9.068;2022-09-20T00:35:47;10.60;99.90
11617;DHT22;5864;52.998;9.068;2022-09-20T00:38:15;10.60;99.90
11617;DHT22;5864;52.998;9.068;2022-09-20T00:40:44;10.60;99.90
11617;DHT22;5864;52.998;9.068;2022-09-20T00:43:13;10.60;99.90
11617;DHT22;5864;52.998;9.068;2022-09-20T00:45:43;10.60;99.90
11617;DHT22;5864;52.998;9.068;2022-09-20T00:48:14;10.50;99.90
11617;DHT22;5864;52.998;9.068;2022-09-20T00:50:44;10.50;99.90
11617;DHT22;5864;52.998;9.068;2022-09-20T00:53:16;10.50;99.90
11617;DHT22;5864;52.998;9.068;2022-09-20T00:55:47;10.50;99.90
11617;DHT22;5864;52.998;9.068;2022-09-20T00:58:16;10.50;99.90
11617;DHT22;5864;52.998;9.068;2022-09-20T01:00:46;10.50;99.90
11617;DHT22;5864;52.998;9.068;2022-09-20T01:03:15;10.50;99.90
11617;DHT22;5864;52.998;9.068;2022-09-20T01:05:45;10.50;99.90
11617;DHT22;5864;52.998;9.068;2022-09-20T01:08:12;10.50;99.90
11617;DHT22;5864;52.998;9.068;2022-09-20T01:10:42;10.50;99.90
11617;DHT22;5864;52.998;9.068;2022-09-20T01:13:09;9.20;99.90
11617;DHT22;5864;52.998;9.068;2022-09-20T01:15:38;10.50;99.90
11617;DHT22;5864;52.998;9.068;2022-09-20T01:18:07;10.40;99.90
11617;DHT22;5864;52.998;9.068;2022-09-20T01:20:38;10.40;99.90
11617;DHT22;5864;52.998;9.068;2022-09-20T01:26:23;10.40;99.90
11617;DHT22;5864;52.998;9.068;2022-09-20T01:29:00;10.30;99.90
11617;DHT22;5864;52.998;9.068;2022-09-20T01:31:33;10.30;99.90
11617;DHT22;5864;52.998;9.068;2022-09-20T01:34:03;10.30;99.90
11617;DHT22;5864;52.998;9.068;2022-09-20T01:36:37;10.30;99.90
11617;DHT22;5864;52.998;9.068;2022-09-20T01:39:13;10.30;99.90
11617;DHT22;5864;52.998;9.068;2022-09-20T01:41:46;10.30;99.90
11617;DHT22;5864;52.998;9.068;2022-09-20T01:44:21;11.40;99.90
11617;DHT22;5864;52.998;9.068;2022-09-20T01:46:52;10.20;99.90
11617;DHT22;5864;52.998;9.068;2022-09-20T01:49:31;10.20;99.90
11617;DHT22;5864;52.998;9.068;2022-09-20T01:58:39;10.20;99.90
11617;DHT22;5864;52.998;9.068;2022-09-20T02:01:33;10.30;99.90
11617;DHT22;5864;52.998;9.068;2022-09-20T02:04:16;10.30;99.90
11617;DHT22;5864;52.998;9.068;2022-09-20T02:07:19;10.30;99.90
11617;DHT22;5864;52.998;9.068;2022-09-20T02:10:14;10.30;99.90
11617;DHT22;5864;52.998;9.068;2022-09-20T02:12:52;10.30;99.90
11617;DHT22;5864;52.998;9.068;2022-09-20T02:15:44;10.30;99.90
11617;DHT22;5864;52.998;9.068;2022-09-20T02:18:30;10.30;99.90
11617;DHT22;5864;52.998;9.068;2022-09-20T02:21:09;10.40;99.90
11617;DHT22;5864;52.998;9.068;2022-09-20T02:23:46;10.40;99.90
11617;DHT22;5864;52.998;9.068;2022-09-20T02:26:42;10.50;99.90
11617;DHT22;5864;52.998;9.068;2022-09-20T02:29:21;10.50;99.90
11617;DHT22;5864;52.998;9.068;2022-09-20T02:32:11;10.60;99.90
11617;DHT22;5864;52.998;9.068;2022-09-20T02:35:07;10.60;99.90
11617;DHT22;5864;52.998;9.068;2022-09-20T02:37:49;10.70;99.90
11617;DHT22;5864;52.998;9.068;2022-09-20T02:40:30;10.70;99.90
11617;DHT22;5864;52.998;9.068;2022-09-20T02:43:06;10.70;99.90
11617;DHT22;5864;52.998;9.068;2022-09-20T02:45:42;10.70;99.90
11617;DHT22;5864;52.998;9.068;2022-09-20T02:48:14;10.70;99.90
11617;DHT22;5864;52.998;9.068;2022-09-20T02:50:50;10.70;99.90
11617;DHT22;5864;52.998;9.068;2022-09-20T02:53:30;10.70;99.90
11617;DHT22;5864;52.998;9.068;2022-09-20T02:56:10;10.70;99.90
11617;DHT22;5864;52.998;9.068;2022-09-20T02:58:47;10.70;99.90
11617;DHT22;5864;52.998;9.068;2022-09-20T03:01:30;10.70;99.90
11617;DHT22;5864;52.998;9.068;2022-09-20T03:04:10;10.80;99.90
11617;DHT22;5864;52.998;9.068;2022-09-20T03:06:44;10.70;99.90
11617;DHT22;5864;52.998;9.068;2022-09-20T03:09:25;10.70;99.90
11617;DHT22;5864;52.998;9.068;2022-09-20T03:12:05;10.80;99.90
11617;DHT22;5864;52.998;9.068;2022-09-20T03:14:39;10.80;99.90
11617;DHT22;5864;52.998;9.068;2022-09-20T03:17:16;10.80;99.90
11617;DHT22;5864;52.998;9.068;2022-09-20T03:20:05;10.90;99.90
11617;DHT22;5864;52.998;9.068;2022-09-20T03:22:44;10.90;99.90
11617;DHT22;5864;52.998;9.068;2022-09-20T03:25:34;10.90;99.90
11617;DHT22;5864;52.998;9.068;2022-09-20T03:28:14;11.00;99.90
11617;DHT22;5864;52.998;9.068;2022-09-20T03:30:53;11.00;99.90
11617;DHT22;5864;52.998;9.068;2022-09-20T03:33:36;11.00;99.90
11617;DHT22;5864;52.998;9.068;2022-09-20T03:36:21;11.00;99.90
11617;DHT22;5864;52.998;9.068;2022-09-20T03:39:16;11.00;99.90
11617;DHT22;5864;52.998;9.068;2022-09-20T03:42:00;11.10;99.90
11617;DHT22;5864;52.998;9.068;2022-09-20T03:45:01;11.10;99.90
11617;DHT22;5864;52.998;9.068;2022-09-20T03:47:44;11.10;99.90
11617;DHT22;5864;52.998;9.068;2022-09-20T03:50:44;11.00;99.90
11617;DHT22;5864;52.998;9.068;2022-09-20T03:53:28;10.90;99.90
11617;DHT22;5864;52.998;9.068;2022-09-20T03:56:07;10.90;99.90
11617;DHT22;5864;52.998;9.068;2022-09-20T03:58:53;11.00;99.90
11617;DHT22;5864;52.998;9.068;2022-09-20T04:01:49;11.00;99.90
11617;DHT22;5864;52.998;9.068;2022-09-20T04:04:26;11.00;99.90
11617;DHT22;5864;52.998;9.068;2022-09-20T04:07:12;11.00;99.90
11617;DHT22;5864;52.998;9.068;2022-09-20T04:10:10;10.90;99.90
11617;DHT22;5864;52.998;9.068;2022-09-20T04:12:52;10.90;99.90
11617;DHT22;5864;52.998;9.068;2022-09-20T04:15:30;10.90;99.90
11617;DHT22;5864;52.998;9.068;2022-09-20T04:18:03;10.90;99.90
11617;DHT22;5864;52.998;9.068;2022-09-20T04:20:41;10.90;99.90
11617;DHT22;5864;52.998;9.068;2022-09-20T04:23:21;10.80;99.90
11617;DHT22;5864;52.998;9.068;2022-09-20T04:25:52;10.80;99.90
11617;DHT22;5864;52.998;9.068;2022-09-20T04:28:25;10.70;99.90
11617;DHT22;5864;52.998;9.068;2022-09-20T04:30:59;10.70;99.90
11617;DHT22;5864;52.998;9.068;2022-09-20T04:33:30;10.60;99.90
11617;DHT22;5864;52.998;9.068;2022-09-20T04:36:10;10.60;99.90
11617;DHT22;5864;52.998;9.068;2022-09-20T04:39:02;10.60;99.90
11617;DHT22;5864;52.998;9.068;2022-09-20T04:45:10;10.50;99.90
11617;DHT22;5864;52.998;9.068;2022-09-20T04:48:01;10.50;99.90
11617;DHT22;5864;52.998;9.068;2022-09-20T04:53:46;10.30;99.90
11617;DHT22;5864;52.998;9.068;2022-09-20T04:56:20;10.40;99.90
11617;DHT22;5864;52.998;9.068;2022-09-20T04:59:09;10.40;99.90
11617;DHT22;5864;52.998;9.068;2022-09-20T05:17:15;10.30;99.90
11617;DHT22;5864;52.998;9.068;2022-09-20T05:20:02;10.30;99.90
11617;DHT22;5864;52.998;9.068;2022-09-20T05:26:05;10.30;99.90
11617;DHT22;5864;52.998;9.068;2022-09-20T05:28:43;10.30;99.90
11617;DHT22;5864;52.998;9.068;2022-09-20T05:31:15;10.30;99.90
11617;DHT22;5864;52.998;9.068;2022-09-20T05:33:49;10.30;99.90
11617;DHT22;5864;52.998;9.068;2022-09-20T05:36:22;10.30;99.90
11617;DHT22;5864;52.998;9.068;2022-09-20T05:38:58;10.30;99.90
11617;DHT22;5864;52.998;9.068;2022-09-20T05:41:33;10.40;99.90
11617;DHT22;5864;52.998;9.068;2022-09-20T05:44:10;10.40;99.90
11617;DHT22;5864;52.998;9.068;2022-09-20T05:46:48;10.50;99.90
11617;DHT22;5864;52.998;9.068;2022-09-20T05:49:31;10.50;99.90
11617;DHT22;5864;52.998;9.068;2022-09-20T05:52:21;10.60;99.90
11617;DHT22;5864;52.998;9.068;2022-09-20T05:55:18;10.70;99.90
11617;DHT22;5864;52.998;9.068;2022-09-20T05:58:06;10.70;99.90
11617;DHT22;5864;52.998;9.068;2022-09-20T06:00:41;10.80;99.90
11617;DHT22;5864;52.998;9.068;2022-09-20T06:03:19;10.90;99.90
11617;DHT22;5864;52.998;9.068;2022-09-20T06:05:55;11.60;99.90
11617;DHT22;5864;52.998;9.068;2022-09-20T06:08:39;12.70;99.90
11617;DHT22;5864;52.998;9.068;2022-09-20T06:11:35;14.00;99.90
11617;DHT22;5864;52.998;9.068;2022-09-20T06:14:20;15.50;99.90
11617;DHT22;5864;52.998;9.068;2022-09-20T06:17:03;16.20;99.90
11617;DHT22;5864;52.998;9.068;2022-09-20T06:19:38;16.90;99.90
11617;DHT22;5864;52.998;9.068;2022-09-20T06:22:14;17.00;99.90
11617;DHT22;5864;52.998;9.068;2022-09-20T06:24:46;16.60;99.90
11617;DHT22;5864;52.998;9.068;2022-09-20T06:27:19;15.80;99.90
11617;DHT22;5864;52.998;9.068;2022-09-20T06:29:56;15.10;99.90
11617;DHT22;5864;52.998;9.068;2022-09-20T06:32:25;14.60;99.90
11617;DHT22;5864;52.998;9.068;2022-09-20T06:34:53;14.20;99.90
11617;DHT22;5864;52.998;9.068;2022-09-20T06:37:33;13.80;99.90
11617;DHT22;5864;52.998;9.068;2022-09-20T06:40:31;13.60;99.90
11617;DHT22;5864;52.998;9.068;2022-09-20T06:43:16;13.40;99.90
11617;DHT22;5864;52.998;9.068;2022-09-20T06:45:45;13.30;99.90
11617;DHT22;5864;52.998;9.068;2022-09-20T06:48:13;13.20;99.90
11617;DHT22;5864;52.998;9.068;2022-09-20T06:50:41;13.20;99.90
11617;DHT22;5864;52.998;9.068;2022-09-20T06:53:14;13.30;99.90
11617;DHT22;5864;52.998;9.068;2022-09-20T06:55:43;13.20;99.90
11617;DHT22;5864;52.998;9.068;2022-09-20T06:58:11;13.30;99.90
11617;DHT22;5864;52.998;9.068;2022-09-20T07:00:39;13.30;99.90
11617;DHT22;5864;52.998;9.068;2022-09-20T07:03:08;13.40;99.90
11617;DHT22;5864;52.998;9.068;2022-09-20T07:05:37;13.50;99.90
11617;DHT22;5864;52.998;9.068;2022-09-20T07:08:05;13.40;99.90
11617;DHT22;5864;52.998;9.068;2022-09-20T07:10:33;13.60;99.90
11617;DHT22;5864;52.998;9.068;2022-09-20T07:13:01;13.80;99.90
11617;DHT22;5864;52.998;9.068;2022-09-20T07:15:31;13.90;99.90
11617;DHT22;5864;52.998;9.068;2022-09-20T07:17:59;14.00;99.90
11617;DHT22;5864;52.998;9.068;2022-09-20T07:20:28;14.10;99.90
11617;DHT22;5864;52.998;9.068;2022-09-20T07:22:55;14.00;99.90
11617;DHT22;5864;52.998;9.068;2022-09-20T07:25:23;14.00;99.90
11617;DHT22;5864;52.998;9.068;2022-09-20T07:27:50;13.90;99.90
11617;DHT22;5864;52.998;9.068;2022-09-20T07:30:18;13.80;99.90
11617;DHT22;5864;52.998;9.068;2022-09-20T07:32:46;13.80;99.90
11617;DHT22;5864;52.998;9.068;2022-09-20T07:35:14;13.80;99.90
11617;DHT22;5864;52.998;9.068;2022-09-20T07:37:43;13.70;99.90
11617;DHT22;5864;52.998;9.068;2022-09-20T07:40:10;13.50;99.90
11617;DHT22;5864;52.998;9.068;2022-09-20T07:42:39;13.40;99.90
11617;DHT22;5864;52.998;9.068;2022-09-20T07:45:07;13.40;99.90
11617;DHT22;5864;52.998;9.068;2022-09-20T07:47:37;13.30;99.90
11617;DHT22;5864;52.998;9.068;2022-09-20T07:50:07;13.40;99.90
11617;DHT22;5864;52.998;9.068;2022-09-20T07:52:36;13.40;99.90
11617;DHT22;5864;52.998;9.068;2022-09-20T07:55:06;13.40;99.90
11617;DHT22;5864;52.998;9.068;2022-09-20T07:57:35;13.50;99.90
11617;DHT22;5864;52.998;9.068;2022-09-20T08:00:04;13.50;99.90
11617;DHT22;5864;52.998;9.068;2022-09-20T08:02:32;13.60;99.90
11617;DHT22;5864;52.998;9.068;2022-09-20T08:05:00;13.60;99.90
11617;DHT22;5864;52.998;9.068;2022-09-20T08:07:28;13.70;99.90
11617;DHT22;5864;52.998;9.068;2022-09-20T08:09:56;13.60;99.90
11617;DHT22;5864;52.998;9.068;2022-09-20T08:12:26;13.70;99.90
11617;DHT22;5864;52.998;9.068;2022-09-20T08:14:54;13.80;99.90
11617;DHT22;5864;52.998;9.068;2022-09-20T08:17:21;13.90;99.90
11617;DHT22;5864;52.998;9.068;2022-09-20T08:19:49;14.00;99.90
11617;DHT22;5864;52.998;9.068;2022-09-20T08:22:18;14.20;99.90
11617;DHT22;5864;52.998;9.068;2022-09-20T08:24:47;14.40;99.90
11617;DHT22;5864;52.998;9.068;2022-09-20T08:27:15;15.00;99.90
11617;DHT22;5864;52.998;9.068;2022-09-20T08:29:44;15.80;99.90
11617;DHT22;5864;52.998;9.068;2022-09-20T08:32:11;16.40;99.90
11617;DHT22;5864;52.998;9.068;2022-09-20T08:34:39;17.40;99.90
11617;DHT22;5864;52.998;9.068;2022-09-20T08:37:06;17.90;99.90
11617;DHT22;5864;52.998;9.068;2022-09-20T08:39:34;18.30;99.90
11617;DHT22;5864;52.998;9.068;2022-09-20T08:42:12;18.30;99.90
11617;DHT22;5864;52.998;9.068;2022-09-20T08:44:48;18.10;99.90
11617;DHT22;5864;52.998;9.068;2022-09-20T08:47:20;17.90;99.90
11617;DHT22;5864;52.998;9.068;2022-09-20T08:49:48;17.50;99.90
11617;DHT22;5864;52.998;9.068;2022-09-20T08:52:18;17.30;99.90
11617;DHT22;5864;52.998;9.068;2022-09-20T08:54:47;17.00;99.90
11617;DHT22;5864;52.998;9.068;2022-09-20T08:57:16;17.30;99.90
11617;DHT22;5864;52.998;9.068;2022-09-20T08:59:45;17.00;99.90
11617;DHT22;5864;52.998;9.068;2022-09-20T09:02:16;17.20;99.90
11617;DHT22;5864;52.998;9.068;2022-09-20T09:04:45;17.10;99.90
11617;DHT22;5864;52.998;9.068;2022-09-20T09:07:16;17.20;99.90
11617;DHT22;5864;52.998;9.068;2022-09-20T09:09:45;17.40;99.90
11617;DHT22;5864;52.998;9.068;2022-09-20T09:12:17;18.10;99.90
11617;DHT22;5864;52.998;9.068;2022-09-20T09:14:47;19.00;99.90
11617;DHT22;5864;52.998;9.068;2022-09-20T09:17:18;19.80;99.90
11617;DHT22;5864;52.998;9.068;2022-09-20T09:19:48;20.20;99.90
11617;DHT22;5864;52.998;9.068;2022-09-20T09:22:22;20.60;99.90
11617;DHT22;5864;52.998;9.068;2022-09-20T09:25:21;20.60;99.90
11617;DHT22;5864;52.998;9.068;2022-09-20T09:27:51;20.60;99.90
11617;DHT22;5864;52.998;9.068;2022-09-20T09:30:24;20.30;99.90
11617;DHT22;5864;52.998;9.068;2022-09-20T09:32:53;19.90;99.90
11617;DHT22;5864;52.998;9.068;2022-09-20T09:35:40;19.50;99.90
11617;DHT22;5864;52.998;9.068;2022-09-20T09:38:17;19.60;99.90
11617;DHT22;5864;52.998;9.068;2022-09-20T09:40:51;19.80;99.90
11617;DHT22;5864;52.998;9.068;2022-09-20T09:43:20;20.50;99.90
11617;DHT22;5864;52.998;9.068;2022-09-20T09:45:54;20.90;99.90
11617;DHT22;5864;52.998;9.068;2022-09-20T09:48:24;20.60;99.90
11617;DHT22;5864;52.998;9.068;2022-09-20T09:51:07;20.90;99.80
11617;DHT22;5864;52.998;9.068;2022-09-20T09:53:35;20.60;99.50
11617;DHT22;5864;52.998;9.068;2022-09-20T09:59:23;20.20;98.50
11617;DHT22;5864;52.998;9.068;2022-09-20T10:01:59;20.10;99.10
11617;DHT22;5864;52.998;9.068;2022-09-20T10:04:34;20.90;98.10
11617;DHT22;5864;52.998;9.068;2022-09-20T10:07:08;21.90;95.80
11617;DHT22;5864;52.998;9.068;2022-09-20T10:09:50;22.90;95.00
11617;DHT22;5864;52.998;9.068;2022-09-20T10:12:30;23.30;91.90
11617;DHT22;5864;52.998;9.068;2022-09-20T10:15:13;24.10;90.90
11617;DHT22;5864;52.998;9.068;2022-09-20T10:17:58;23.70;91.70
11617;DHT22;5864;52.998;9.068;2022-09-20T10:20:49;24.00;91.50
11617;DHT22;5864;52.998;9.068;2022-09-20T10:23:33;23.70;92.40
11617;DHT22;5864;52.998;9.068;2022-09-20T10:26:19;23.00;92.20
11617;DHT22;5864;52.998;9.068;2022-09-20T10:28:56;22.10;93.60
11617;DHT22;5864;52.998;9.068;2022-09-20T10:31:36;21.30;94.60
11617;DHT22;5864;52.998;9.068;2022-09-20T10:34:20;20.20;99.00
11617;DHT22;5864;52.998;9.068;2022-09-20T10:36:56;19.10;99.90
11617;DHT22;5864;52.998;9.068;2022-09-20T10:39:30;17.90;99.90
11617;DHT22;5864;52.998;9.068;2022-09-20T10:42:06;17.10;99.90
11617;DHT22;5864;52.998;9.068;2022-09-20T10:45:02;16.70;99.90
11617;DHT22;5864;52.998;9.068;2022-09-20T10:47:37;16.50;99.90
11617;DHT22;5864;52.998;9.068;2022-09-20T10:50:20;16.20;99.90
11617;DHT22;5864;52.998;9.068;2022-09-20T10:53:21;16.30;99.90
11617;DHT22;5864;52.998;9.068;2022-09-20T10:56:04;16.20;99.90
11617;DHT22;5864;52.998;9.068;2022-09-20T10:59:03;16.00;99.90
11617;DHT22;5864;52.998;9.068;2022-09-20T11:01:39;16.10;99.90
11617;DHT22;5864;52.998;9.068;2022-09-20T11:04:29;15.90;99.90
11617;DHT22;5864;52.998;9.068;2022-09-20T11:07:09;15.80;99.90
11617;DHT22;5864;52.998;9.068;2022-09-20T11:09:41;15.80;99.90
11617;DHT22;5864;52.998;9.068;2022-09-20T11:12:12;15.70;99.90
11617;DHT22;5864;52.998;9.068;2022-09-20T11:14:50;15.60;99.90
11617;DHT22;5864;52.998;9.068;2022-09-20T11:17:24;15.40;99.90
11617;DHT22;5864;52.998;9.068;2022-09-20T11:19:58;15.50;99.90
11617;DHT22;5864;52.998;9.068;2022-09-20T11:22:32;15.60;99.90
11617;DHT22;5864;52.998;9.068;2022-09-20T11:25:05;15.70;99.90
11617;DHT22;5864;52.998;9.068;2022-09-20T11:27:41;15.70;99.90
11617;DHT22;5864;52.998;9.068;2022-09-20T11:30:16;15.90;99.90
11617;DHT22;5864;52.998;9.068;2022-09-20T11:32:48;15.80;99.90
11617;DHT22;5864;52.998;9.068;2022-09-20T11:35:26;16.00;99.90
11617;DHT22;5864;52.998;9.068;2022-09-20T11:38:08;16.20;99.90
11617;DHT22;5864;52.998;9.068;2022-09-20T11:40:40;16.30;99.90
11617;DHT22;5864;52.998;9.068;2022-09-20T11:43:10;16.40;99.90
11617;DHT22;5864;52.998;9.068;2022-09-20T11:45:41;16.50;99.90
11617;DHT22;5864;52.998;9.068;2022-09-20T11:48:16;16.60;99.90
11617;DHT22;5864;52.998;9.068;2022-09-20T11:54:08;17.30;99.90
11617;DHT22;5864;52.998;9.068;2022-09-20T11:56:39;17.40;99.90
11617;DHT22;5864;52.998;9.068;2022-09-20T11:59:26;17.50;99.90
11617;DHT22;5864;52.998;9.068;2022-09-20T12:01:56;17.70;99.90
11617;DHT22;5864;52.998;9.068;2022-09-20T12:04:28;17.70;99.90
11617;DHT22;5864;52.998;9.068;2022-09-20T12:06:59;18.00;99.90
11617;DHT22;5864;52.998;9.068;2022-09-20T12:09:31;17.90;99.90
11617;DHT22;5864;52.998;9.068;2022-09-20T12:12:13;17.90;99.90
11617;DHT22;5864;52.998;9.068;2022-09-20T12:14:52;17.70;99.90
11617;DHT22;5864;52.998;9.068;2022-09-20T12:18:00;17.80;99.90
11617;DHT22;5864;52.998;9.068;2022-09-20T12:20:55;17.80;99.90
11617;DHT22;5864;52.998;9.068;2022-09-20T12:23:46;18.10;99.90
11617;DHT22;5864;52.998;9.068;2022-09-20T12:26:41;18.10;99.90
11617;DHT22;5864;52.998;9.068;2022-09-20T12:32:52;18.60;99.90
11617;DHT22;5864;52.998;9.068;2022-09-20T12:38:46;18.90;99.90
11617;DHT22;5864;52.998;9.068;2022-09-20T12:41:16;18.90;99.90
11617;DHT22;5864;52.998;9.068;2022-09-20T12:44:05;19.30;99.90
11617;DHT22;5864;52.998;9.068;2022-09-20T12:46:51;19.70;99.90
11617;DHT22;5864;52.998;9.068;2022-09-20T12:52:50;20.30;99.90
11617;DHT22;5864;52.998;9.068;2022-09-20T12:55:40;20.50;99.90
11617;DHT22;5864;52.998;9.068;2022-09-20T12:58:27;20.70;99.90
11617;DHT22;5864;52.998;9.068;2022-09-20T13:01:27;20.90;99.90
11617;DHT22;5864;52.998;9.068;2022-09-20T13:07:35;21.20;98.90
11617;DHT22;5864;52.998;9.068;2022-09-20T13:10:17;21.40;98.70
11617;DHT22;5864;52.998;9.068;2022-09-20T13:12:49;21.10;97.30
11617;DHT22;5864;52.998;9.068;2022-09-20T13:15:19;21.00;96.70
11617;DHT22;5864;52.998;9.068;2022-09-20T13:17:51;20.70;98.00
11617;DHT22;5864;52.998;9.068;2022-09-20T13:20:23;20.80;98.30
11617;DHT22;5864;52.998;9.068;2022-09-20T13:22:52;20.70;95.80
11617;DHT22;5864;52.998;9.068;2022-09-20T13:25:20;20.80;94.70
11617;DHT22;5864;52.998;9.068;2022-09-20T13:27:53;20.80;94.70
11617;DHT22;5864;52.998;9.068;2022-09-20T13:30:25;20.90;94.90
11617;DHT22;5864;52.998;9.068;2022-09-20T13:32:54;21.00;93.70
11617;DHT22;5864;52.998;9.068;2022-09-20T13:35:24;20.80;94.80
11617;DHT22;5864;52.998;9.068;2022-09-20T13:37:54;20.90;95.40
11617;DHT22;5864;52.998;9.068;2022-09-20T13:40:24;21.00;95.20
11617;DHT22;5864;52.998;9.068;2022-09-20T13:42:55;21.00;95.10
11617;DHT22;5864;52.998;9.068;2022-09-20T13:45:25;20.90;95.10
11617;DHT22;5864;52.998;9.068;2022-09-20T13:47:58;20.60;94.50
11617;DHT22;5864;52.998;9.068;2022-09-20T13:50:28;20.70;95.30
11617;DHT22;5864;52.998;9.068;2022-09-20T13:52:58;20.70;94.90
11617;DHT22;5864;52.998;9.068;2022-09-20T13:55:29;20.60;93.80
11617;DHT22;5864;52.998;9.068;2022-09-20T13:58:00;20.10;93.90
11617;DHT22;5864;52.998;9.068;2022-09-20T14:00:30;20.20;94.20
11617;DHT22;5864;52.998;9.068;2022-09-20T14:03:01;20.00;93.70
11617;DHT22;5864;52.998;9.068;2022-09-20T14:05:29;19.90;94.00
11617;DHT22;5864;52.998;9.068;2022-09-20T14:07:59;20.30;94.30
11617;DHT22;5864;52.998;9.068;2022-09-20T14:10:30;19.80;93.80
11617;DHT22;5864;52.998;9.068;2022-09-20T14:12:58;20.00;94.80
11617;DHT22;5864;52.998;9.068;2022-09-20T14:15:30;19.80;95.00
11617;DHT22;5864;52.998;9.068;2022-09-20T14:18:01;20.00;94.70
11617;DHT22;5864;52.998;9.068;2022-09-20T14:20:32;19.90;96.10
11617;DHT22;5864;52.998;9.068;2022-09-20T14:23:00;20.10;95.70
11617;DHT22;5864;52.998;9.068;2022-09-20T14:25:27;20.60;94.60
11617;DHT22;5864;52.998;9.068;2022-09-20T14:28:16;20.70;93.70
11617;DHT22;5864;52.998;9.068;2022-09-20T14:30:45;20.40;93.30
11617;DHT22;5864;52.998;9.068;2022-09-20T14:33:17;20.30;95.10
11617;DHT22;5864;52.998;9.068;2022-09-20T14:35:48;20.10;94.80
11617;DHT22;5864;52.998;9.068;2022-09-20T14:38:17;20.00;94.70
11617;DHT22;5864;52.998;9.068;2022-09-20T14:40:48;19.60;95.50
11617;DHT22;5864;52.998;9.068;2022-09-20T14:43:24;19.30;96.10
11617;DHT22;5864;52.998;9.068;2022-09-20T14:45:54;19.10;96.20
11617;DHT22;5864;52.998;9.068;2022-09-20T14:48:33;18.90;96.50
11617;DHT22;5864;52.998;9.068;2022-09-20T14:51:19;18.60;96.10
11617;DHT22;5864;52.998;9.068;2022-09-20T14:53:49;18.30;96.10
11617;DHT22;5864;52.998;9.068;2022-09-20T14:56:26;18.10;97.40
11617;DHT22;5864;52.998;9.068;2022-09-20T14:59:05;18.20;98.30
11617;DHT22;5864;52.998;9.068;2022-09-20T15:01:34;18.20;98.60
11617;DHT22;5864;52.998;9.068;2022-09-20T15:04:08;18.30;98.80
11617;DHT22;5864;52.998;9.068;2022-09-20T15:06:36;18.40;99.20
11617;DHT22;5864;52.998;9.068;2022-09-20T15:09:05;18.50;98.50
11617;DHT22;5864;52.998;9.068;2022-09-20T15:11:33;18.50;98.90
11617;DHT22;5864;52.998;9.068;2022-09-20T15:14:00;18.60;97.70
11617;DHT22;5864;52.998;9.068;2022-09-20T15:16:27;18.50;98.20
11617;DHT22;5864;52.998;9.068;2022-09-20T15:18:55;18.50;98.40
11617;DHT22;5864;52.998;9.068;2022-09-20T15:21:24;18.50;98.70
11617;DHT22;5864;52.998;9.068;2022-09-20T15:23:52;18.50;99.90
11617;DHT22;5864;52.998;9.068;2022-09-20T15:26:19;18.50;99.90
11617;DHT22;5864;52.998;9.068;2022-09-20T15:28:48;18.50;99.90
11617;DHT22;5864;52.998;9.068;2022-09-20T15:31:15;18.50;99.90
11617;DHT22;5864;52.998;9.068;2022-09-20T15:33:45;18.50;99.90
11617;DHT22;5864;52.998;9.068;2022-09-20T15:36:12;18.40;99.90
11617;DHT22;5864;52.998;9.068;2022-09-20T15:38:41;18.30;99.90
11617;DHT22;5864;52.998;9.068;2022-09-20T15:41:08;18.20;99.90
11617;DHT22;5864;52.998;9.068;2022-09-20T15:43:37;18.20;99.90
11617;DHT22;5864;52.998;9.068;2022-09-20T15:46:16;18.10;99.90
11617;DHT22;5864;52.998;9.068;2022-09-20T15:48:44;18.00;99.90
11617;DHT22;5864;52.998;9.068;2022-09-20T15:51:12;17.90;99.90
11617;DHT22;5864;52.998;9.068;2022-09-20T15:53:42;17.90;99.90
11617;DHT22;5864;52.998;9.068;2022-09-20T15:56:15;17.90;99.90
11617;DHT22;5864;52.998;9.068;2022-09-20T15:58:44;17.60;99.90
11617;DHT22;5864;52.998;9.068;2022-09-20T16:01:12;17.60;99.90
11617;DHT22;5864;52.998;9.068;2022-09-20T16:03:42;17.40;99.90
11617;DHT22;5864;52.998;9.068;2022-09-20T16:06:11;17.30;99.80
11617;DHT22;5864;52.998;9.068;2022-09-20T16:08:41;17.30;99.00
11617;DHT22;5864;52.998;9.068;2022-09-20T16:11:11;17.20;99.50
11617;DHT22;5864;52.998;9.068;2022-09-20T16:13:39;17.30;99.70
11617;DHT22;5864;52.998;9.068;2022-09-20T16:16:09;17.20;99.70
11617;DHT22;5864;52.998;9.068;2022-09-20T16:18:39;17.20;99.90
11617;DHT22;5864;52.998;9.068;2022-09-20T16:21:24;17.20;99.90
11617;DHT22;5864;52.998;9.068;2022-09-20T16:23:56;17.20;99.90
11617;DHT22;5864;52.998;9.068;2022-09-20T16:26:25;17.20;99.90
11617;DHT22;5864;52.998;9.068;2022-09-20T16:28:54;17.30;99.90
11617;DHT22;5864;52.998;9.068;2022-09-20T16:31:34;17.20;99.90
11617;DHT22;5864;52.998;9.068;2022-09-20T16:34:07;17.20;99.90
11617;DHT22;5864;52.998;9.068;2022-09-20T16:36:36;17.10;99.90
11617;DHT22;5864;52.998;9.068;2022-09-20T16:39:05;17.10;99.90
11617;DHT22;5864;52.998;9.068;2022-09-20T16:41:33;17.00;99.90
11617;DHT22;5864;52.998;9.068;2022-09-20T16:44:01;16.90;99.90
11617;DHT22;5864;52.998;9.068;2022-09-20T16:46:30;16.80;99.90
11617;DHT22;5864;52.998;9.068;2022-09-20T16:49:00;16.70;99.90
11617;DHT22;5864;52.998;9.068;2022-09-20T16:51:29;16.50;99.90
11617;DHT22;5864;52.998;9.068;2022-09-20T16:54:01;16.50;99.90
11617;DHT22;5864;52.998;9.068;2022-09-20T16:56:32;16.40;99.90
11617;DHT22;5864;52.998;9.068;2022-09-20T16:59:01;16.40;99.90
11617;DHT22;5864;52.998;9.068;2022-09-20T17:01:29;16.30;99.90
11617;DHT22;5864;52.998;9.068;2022-09-20T17:03:57;16.20;99.90
11617;DHT22;5864;52.998;9.068;2022-09-20T17:06:25;16.10;99.90
11617;DHT22;5864;52.998;9.068;2022-09-20T17:08:54;16.10;99.90
11617;DHT22;5864;52.998;9.068;2022-09-20T17:11:24;16.00;99.90
11617;DHT22;5864;52.998;9.068;2022-09-20T17:13:54;15.90;99.90
11617;DHT22;5864;52.998;9.068;2022-09-20T17:16:23;15.90;99.90
11617;DHT22;5864;52.998;9.068;2022-09-20T17:18:52;15.70;99.90
11617;DHT22;5864;52.998;9.068;2022-09-20T17:21:21;15.70;99.90
11617;DHT22;5864;52.998;9.068;2022-09-20T17:23:54;15.50;99.90
11617;DHT22;5864;52.998;9.068;2022-09-20T17:26:24;15.50;99.90
11617;DHT22;5864;52.998;9.068;2022-09-20T17:28:54;15.40;99.90